LGIR/HER METAR and TAF weather

Enter ICAO airport designator
Station Type Date Time Source
LGIR METAR 2020/04/02 03:20 UTC NOAA

LGIR 020320Z 19008KT 9999 FEW025 SCT090 13/08 Q1010 NOSIG


Station Type Date Time Source
LGIR Decoded METAR 2020/04/02 03:20 UTC NOAA

Heraklion Airport , Greece (LGIR) 35-20N 025-11E 39M
Apr 01, 2020 - 11:20 PM EDT / 2020.04.02 0320 UTC
Wind: from the S (190 degrees) at 9 MPH (8 KT):0
Visibility: greater than 7 mile(s):0
Sky conditions: partly cloudy
Temperature: 55 F (13 C)
Dew Point: 46 F (8 C)
Relative Humidity: 71%
Pressure (altimeter): 29.83 in. Hg (1010 hPa)
ob: LGIR 020320Z 19008KT 9999 FEW025 SCT090 13/08 Q1010 NOSIG
cycle: 3

Station Type Date Time Source
LGIR TAF 2020/04/01 18:12 UTC NOAA

TAF LGIR 011700Z 0118/0218 29010KT 9999 SCT025 SCT090 PROB30
TEMPO 0203/0209 3000 SHRA FEW010 FEW018CB BKN020 BKN080
BECMG 0118/0120 18010KT
TEMPO 0121/0206 18015G25KT

Example: see airport list